sensor_id;sensor_type;location;lat;lon;timestamp;P1;durP1;ratioP1;P2;durP2;ratioP2
21941;SDS011;11135;54.192;15.670;2023-02-01T00:00:09;7.85;;;2.28;;
21941;SDS011;11135;54.192;15.670;2023-02-01T00:03:37;20.60;;;2.72;;
21941;SDS011;11135;54.192;15.670;2023-02-01T00:06:44;13.00;;;2.70;;
21941;SDS011;11135;54.192;15.670;2023-02-01T00:09:53;11.77;;;2.75;;
21941;SDS011;11135;54.192;15.670;2023-02-01T00:13:02;11.82;;;3.08;;
21941;SDS011;11135;54.192;15.670;2023-02-01T00:16:09;9.63;;;1.75;;
21941;SDS011;11135;54.192;15.670;2023-02-01T00:19:17;13.73;;;3.13;;
21941;SDS011;11135;54.192;15.670;2023-02-01T00:22:22;17.13;;;3.17;;
21941;SDS011;11135;54.192;15.670;2023-02-01T00:25:31;13.15;;;3.30;;
21941;SDS011;11135;54.192;15.670;2023-02-01T00:28:37;13.40;;;3.03;;
21941;SDS011;11135;54.192;15.670;2023-02-01T00:31:42;11.77;;;3.28;;
21941;SDS011;11135;54.192;15.670;2023-02-01T00:34:50;15.07;;;3.45;;
21941;SDS011;11135;54.192;15.670;2023-02-01T00:37:55;11.80;;;3.53;;
21941;SDS011;11135;54.192;15.670;2023-02-01T00:41:06;9.20;;;1.98;;
21941;SDS011;11135;54.192;15.670;2023-02-01T00:44:13;17.65;;;3.78;;
21941;SDS011;11135;54.192;15.670;2023-02-01T00:47:18;9.85;;;2.80;;
21941;SDS011;11135;54.192;15.670;2023-02-01T00:50:25;13.80;;;3.25;;
21941;SDS011;11135;54.192;15.670;2023-02-01T00:53:31;8.90;;;2.15;;
21941;SDS011;11135;54.192;15.670;2023-02-01T00:56:40;18.40;;;3.92;;
21941;SDS011;11135;54.192;15.670;2023-02-01T00:59:45;17.40;;;3.28;;
21941;SDS011;11135;54.192;15.670;2023-02-01T01:02:53;8.02;;;1.75;;
21941;SDS011;11135;54.192;15.670;2023-02-01T01:06:03;13.82;;;2.92;;
21941;SDS011;11135;54.192;15.670;2023-02-01T01:09:13;12.68;;;4.00;;
21941;SDS011;11135;54.192;15.670;2023-02-01T01:12:23;15.07;;;2.78;;
21941;SDS011;11135;54.192;15.670;2023-02-01T01:15:28;11.07;;;2.92;;
21941;SDS011;11135;54.192;15.670;2023-02-01T01:18:34;14.02;;;2.30;;
21941;SDS011;11135;54.192;15.670;2023-02-01T01:21:42;18.05;;;2.72;;
21941;SDS011;11135;54.192;15.670;2023-02-01T01:24:50;12.05;;;2.08;;
21941;SDS011;11135;54.192;15.670;2023-02-01T01:27:59;16.17;;;3.13;;
21941;SDS011;11135;54.192;15.670;2023-02-01T01:31:07;8.70;;;2.30;;
21941;SDS011;11135;54.192;15.670;2023-02-01T01:34:16;14.93;;;2.58;;
21941;SDS011;11135;54.192;15.670;2023-02-01T01:37:24;20.90;;;3.65;;
21941;SDS011;11135;54.192;15.670;2023-02-01T01:40:30;11.55;;;2.35;;
21941;SDS011;11135;54.192;15.670;2023-02-01T01:43:53;11.75;;;2.35;;
21941;SDS011;11135;54.192;15.670;2023-02-01T01:46:58;9.93;;;2.67;;
21941;SDS011;11135;54.192;15.670;2023-02-01T01:50:05;15.63;;;2.88;;
21941;SDS011;11135;54.192;15.670;2023-02-01T01:53:13;12.75;;;2.63;;
21941;SDS011;11135;54.192;15.670;2023-02-01T01:56:19;14.02;;;2.63;;
21941;SDS011;11135;54.192;15.670;2023-02-01T01:59:27;6.95;;;2.05;;
21941;SDS011;11135;54.192;15.670;2023-02-01T02:02:34;13.27;;;2.47;;
21941;SDS011;11135;54.192;15.670;2023-02-01T02:05:41;16.95;;;2.95;;
21941;SDS011;11135;54.192;15.670;2023-02-01T02:08:49;10.85;;;2.33;;
21941;SDS011;11135;54.192;15.670;2023-02-01T02:11:54;10.60;;;2.25;;
21941;SDS011;11135;54.192;15.670;2023-02-01T02:15:03;10.80;;;3.03;;
21941;SDS011;11135;54.192;15.670;2023-02-01T02:18:10;10.82;;;2.78;;
21941;SDS011;11135;54.192;15.670;2023-02-01T02:21:23;9.52;;;2.40;;
21941;SDS011;11135;54.192;15.670;2023-02-01T02:24:49;11.45;;;2.58;;
21941;SDS011;11135;54.192;15.670;2023-02-01T02:28:03;13.18;;;2.15;;
21941;SDS011;11135;54.192;15.670;2023-02-01T02:31:17;13.48;;;3.10;;
21941;SDS011;11135;54.192;15.670;2023-02-01T02:34:28;13.95;;;2.13;;
21941;SDS011;11135;54.192;15.670;2023-02-01T02:37:37;11.90;;;2.05;;
21941;SDS011;11135;54.192;15.670;2023-02-01T02:40:45;10.30;;;2.17;;
21941;SDS011;11135;54.192;15.670;2023-02-01T02:43:52;16.33;;;3.13;;
21941;SDS011;11135;54.192;15.670;2023-02-01T02:47:15;8.32;;;2.90;;
21941;SDS011;11135;54.192;15.670;2023-02-01T02:50:34;12.23;;;3.22;;
21941;SDS011;11135;54.192;15.670;2023-02-01T02:53:53;17.70;;;3.45;;
21941;SDS011;11135;54.192;15.670;2023-02-01T02:57:14;12.20;;;2.45;;
21941;SDS011;11135;54.192;15.670;2023-02-01T03:00:33;18.23;;;3.38;;
21941;SDS011;11135;54.192;15.670;2023-02-01T03:03:51;14.00;;;4.15;;
21941;SDS011;11135;54.192;15.670;2023-02-01T03:10:47;16.88;;;2.30;;
21941;SDS011;11135;54.192;15.670;2023-02-01T03:13:54;13.52;;;4.43;;
21941;SDS011;11135;54.192;15.670;2023-02-01T03:16:59;11.80;;;2.42;;
21941;SDS011;11135;54.192;15.670;2023-02-01T03:20:07;10.82;;;1.90;;
21941;SDS011;11135;54.192;15.670;2023-02-01T03:23:16;12.07;;;2.65;;
21941;SDS011;11135;54.192;15.670;2023-02-01T03:26:25;12.10;;;2.75;;
21941;SDS011;11135;54.192;15.670;2023-02-01T03:29:33;16.17;;;2.70;;
21941;SDS011;11135;54.192;15.670;2023-02-01T03:32:43;12.82;;;2.75;;
21941;SDS011;11135;54.192;15.670;2023-02-01T03:36:03;15.93;;;3.78;;
21941;SDS011;11135;54.192;15.670;2023-02-01T03:39:13;7.05;;;1.75;;
21941;SDS011;11135;54.192;15.670;2023-02-01T03:42:27;10.88;;;2.20;;
21941;SDS011;11135;54.192;15.670;2023-02-01T03:45:36;14.70;;;3.05;;
21941;SDS011;11135;54.192;15.670;2023-02-01T03:48:44;13.98;;;2.88;;
21941;SDS011;11135;54.192;15.670;2023-02-01T03:51:50;10.02;;;1.95;;
21941;SDS011;11135;54.192;15.670;2023-02-01T03:54:56;5.25;;;1.88;;
21941;SDS011;11135;54.192;15.670;2023-02-01T03:58:08;8.63;;;2.08;;
21941;SDS011;11135;54.192;15.670;2023-02-01T04:01:15;17.65;;;2.60;;
21941;SDS011;11135;54.192;15.670;2023-02-01T04:04:26;9.18;;;2.83;;
21941;SDS011;11135;54.192;15.670;2023-02-01T04:07:31;12.13;;;2.30;;
21941;SDS011;11135;54.192;15.670;2023-02-01T04:10:38;10.02;;;2.40;;
21941;SDS011;11135;54.192;15.670;2023-02-01T04:13:46;15.80;;;3.22;;
21941;SDS011;11135;54.192;15.670;2023-02-01T04:16:52;9.25;;;1.80;;
21941;SDS011;11135;54.192;15.670;2023-02-01T04:19:57;11.35;;;2.33;;
21941;SDS011;11135;54.192;15.670;2023-02-01T04:23:03;8.57;;;1.67;;
21941;SDS011;11135;54.192;15.670;2023-02-01T04:26:08;12.77;;;1.67;;
21941;SDS011;11135;54.192;15.670;2023-02-01T04:29:17;15.95;;;3.28;;
21941;SDS011;11135;54.192;15.670;2023-02-01T04:32:22;9.43;;;2.30;;
21941;SDS011;11135;54.192;15.670;2023-02-01T04:35:28;10.88;;;2.55;;
21941;SDS011;11135;54.192;15.670;2023-02-01T04:38:34;14.70;;;2.00;;
21941;SDS011;11135;54.192;15.670;2023-02-01T04:41:40;16.23;;;2.90;;
21941;SDS011;11135;54.192;15.670;2023-02-01T04:44:48;8.35;;;1.70;;
21941;SDS011;11135;54.192;15.670;2023-02-01T04:47:55;8.20;;;1.75;;
21941;SDS011;11135;54.192;15.670;2023-02-01T04:51:01;9.65;;;2.95;;
21941;SDS011;11135;54.192;15.670;2023-02-01T04:54:09;10.82;;;3.50;;
21941;SDS011;11135;54.192;15.670;2023-02-01T04:57:17;6.95;;;1.42;;
21941;SDS011;11135;54.192;15.670;2023-02-01T05:00:28;9.43;;;1.95;;
21941;SDS011;11135;54.192;15.670;2023-02-01T05:03:33;10.88;;;2.08;;
21941;SDS011;11135;54.192;15.670;2023-02-01T05:06:39;15.40;;;2.92;;
21941;SDS011;11135;54.192;15.670;2023-02-01T05:09:47;11.02;;;1.90;;
21941;SDS011;11135;54.192;15.670;2023-02-01T05:12:53;8.02;;;1.48;;
21941;SDS011;11135;54.192;15.670;2023-02-01T05:16:13;9.70;;;2.63;;
21941;SDS011;11135;54.192;15.670;2023-02-01T05:19:19;10.85;;;2.20;;
21941;SDS011;11135;54.192;15.670;2023-02-01T05:22:26;13.43;;;2.25;;
21941;SDS011;11135;54.192;15.670;2023-02-01T05:25:32;7.15;;;1.48;;
21941;SDS011;11135;54.192;15.670;2023-02-01T05:28:40;18.70;;;2.38;;
21941;SDS011;11135;54.192;15.670;2023-02-01T05:31:49;4.15;;;1.10;;
21941;SDS011;11135;54.192;15.670;2023-02-01T05:34:54;9.93;;;2.13;;
21941;SDS011;11135;54.192;15.670;2023-02-01T05:38:01;18.80;;;2.33;;
21941;SDS011;11135;54.192;15.670;2023-02-01T05:41:06;9.50;;;2.17;;
21941;SDS011;11135;54.192;15.670;2023-02-01T05:44:14;10.40;;;1.83;;
21941;SDS011;11135;54.192;15.670;2023-02-01T05:47:23;11.15;;;2.65;;
21941;SDS011;11135;54.192;15.670;2023-02-01T05:50:29;14.57;;;2.65;;
21941;SDS011;11135;54.192;15.670;2023-02-01T05:53:34;10.90;;;2.20;;
21941;SDS011;11135;54.192;15.670;2023-02-01T05:56:40;8.05;;;2.60;;
21941;SDS011;11135;54.192;15.670;2023-02-01T05:59:51;10.23;;;2.08;;
21941;SDS011;11135;54.192;15.670;2023-02-01T06:03:00;14.35;;;2.60;;
21941;SDS011;11135;54.192;15.670;2023-02-01T06:06:05;17.48;;;2.40;;
21941;SDS011;11135;54.192;15.670;2023-02-01T06:09:11;16.30;;;2.28;;
21941;SDS011;11135;54.192;15.670;2023-02-01T06:12:18;14.07;;;3.72;;
21941;SDS011;11135;54.192;15.670;2023-02-01T06:15:27;12.57;;;2.58;;
21941;SDS011;11135;54.192;15.670;2023-02-01T06:18:38;11.20;;;1.95;;
21941;SDS011;11135;54.192;15.670;2023-02-01T06:21:43;11.35;;;2.80;;
21941;SDS011;11135;54.192;15.670;2023-02-01T06:24:49;8.20;;;2.38;;
21941;SDS011;11135;54.192;15.670;2023-02-01T06:27:55;14.50;;;1.92;;
21941;SDS011;11135;54.192;15.670;2023-02-01T06:31:02;10.38;;;2.00;;
21941;SDS011;11135;54.192;15.670;2023-02-01T06:34:12;8.80;;;1.27;;
21941;SDS011;11135;54.192;15.670;2023-02-01T06:37:18;10.98;;;2.53;;
21941;SDS011;11135;54.192;15.670;2023-02-01T06:40:29;13.75;;;1.75;;
21941;SDS011;11135;54.192;15.670;2023-02-01T06:43:36;14.00;;;2.20;;
21941;SDS011;11135;54.192;15.670;2023-02-01T06:46:44;11.98;;;2.85;;
21941;SDS011;11135;54.192;15.670;2023-02-01T06:49:52;8.73;;;2.53;;
21941;SDS011;11135;54.192;15.670;2023-02-01T06:52:58;4.68;;;1.63;;
21941;SDS011;11135;54.192;15.670;2023-02-01T06:56:04;11.52;;;1.70;;
21941;SDS011;11135;54.192;15.670;2023-02-01T06:59:10;10.20;;;2.13;;
21941;SDS011;11135;54.192;15.670;2023-02-01T07:02:17;7.95;;;2.20;;
21941;SDS011;11135;54.192;15.670;2023-02-01T07:05:26;7.88;;;1.92;;
21941;SDS011;11135;54.192;15.670;2023-02-01T07:08:32;7.38;;;1.73;;
21941;SDS011;11135;54.192;15.670;2023-02-01T07:11:37;13.45;;;2.30;;
21941;SDS011;11135;54.192;15.670;2023-02-01T07:14:44;11.75;;;2.35;;
21941;SDS011;11135;54.192;15.670;2023-02-01T07:17:51;8.75;;;1.73;;
21941;SDS011;11135;54.192;15.670;2023-02-01T07:21:01;7.65;;;1.95;;
21941;SDS011;11135;54.192;15.670;2023-02-01T07:24:07;10.93;;;1.35;;
21941;SDS011;11135;54.192;15.670;2023-02-01T07:27:12;9.05;;;2.13;;
21941;SDS011;11135;54.192;15.670;2023-02-01T07:30:19;5.38;;;1.42;;
21941;SDS011;11135;54.192;15.670;2023-02-01T07:33:24;8.60;;;1.70;;
21941;SDS011;11135;54.192;15.670;2023-02-01T07:36:38;12.77;;;2.42;;
21941;SDS011;11135;54.192;15.670;2023-02-01T07:39:43;4.22;;;1.20;;
21941;SDS011;11135;54.192;15.670;2023-02-01T07:42:50;10.25;;;1.90;;
21941;SDS011;11135;54.192;15.670;2023-02-01T07:45:58;10.88;;;2.35;;
21941;SDS011;11135;54.192;15.670;2023-02-01T07:49:04;6.72;;;1.95;;
21941;SDS011;11135;54.192;15.670;2023-02-01T07:52:13;9.63;;;1.77;;
21941;SDS011;11135;54.192;15.670;2023-02-01T07:55:21;9.85;;;2.40;;
21941;SDS011;11135;54.192;15.670;2023-02-01T07:58:29;7.97;;;2.92;;
21941;SDS011;11135;54.192;15.670;2023-02-01T08:01:37;11.77;;;2.42;;
21941;SDS011;11135;54.192;15.670;2023-02-01T08:04:43;10.43;;;2.40;;
21941;SDS011;11135;54.192;15.670;2023-02-01T08:07:54;10.63;;;1.95;;
21941;SDS011;11135;54.192;15.670;2023-02-01T08:11:00;12.07;;;3.03;;
21941;SDS011;11135;54.192;15.670;2023-02-01T08:14:06;15.50;;;2.63;;
21941;SDS011;11135;54.192;15.670;2023-02-01T08:17:11;12.65;;;2.70;;
21941;SDS011;11135;54.192;15.670;2023-02-01T08:20:17;13.15;;;2.25;;
21941;SDS011;11135;54.192;15.670;2023-02-01T08:23:27;8.65;;;3.30;;
21941;SDS011;11135;54.192;15.670;2023-02-01T08:26:32;12.77;;;3.03;;
21941;SDS011;11135;54.192;15.670;2023-02-01T08:29:37;13.95;;;2.80;;
21941;SDS011;11135;54.192;15.670;2023-02-01T08:32:46;10.65;;;2.55;;
21941;SDS011;11135;54.192;15.670;2023-02-01T08:35:52;9.32;;;1.92;;
21941;SDS011;11135;54.192;15.670;2023-02-01T08:39:00;8.98;;;2.28;;
21941;SDS011;11135;54.192;15.670;2023-02-01T08:42:10;14.10;;;3.17;;
21941;SDS011;11135;54.192;15.670;2023-02-01T08:45:28;15.00;;;2.33;;
21941;SDS011;11135;54.192;15.670;2023-02-01T08:48:34;22.33;;;3.00;;
21941;SDS011;11135;54.192;15.670;2023-02-01T08:51:40;18.20;;;2.60;;
21941;SDS011;11135;54.192;15.670;2023-02-01T08:54:50;12.02;;;2.90;;
21941;SDS011;11135;54.192;15.670;2023-02-01T08:57:56;18.27;;;2.78;;
21941;SDS011;11135;54.192;15.670;2023-02-01T09:01:03;11.55;;;2.08;;
21941;SDS011;11135;54.192;15.670;2023-02-01T09:04:08;17.75;;;3.92;;
21941;SDS011;11135;54.192;15.670;2023-02-01T09:07:15;12.30;;;2.22;;
21941;SDS011;11135;54.192;15.670;2023-02-01T09:10:23;11.75;;;2.15;;
21941;SDS011;11135;54.192;15.670;2023-02-01T09:13:37;11.23;;;2.40;;
21941;SDS011;11135;54.192;15.670;2023-02-01T09:16:46;10.90;;;2.58;;
21941;SDS011;11135;54.192;15.670;2023-02-01T09:19:55;13.82;;;2.17;;
21941;SDS011;11135;54.192;15.670;2023-02-01T09:23:02;17.60;;;2.75;;
21941;SDS011;11135;54.192;15.670;2023-02-01T09:26:12;11.77;;;2.75;;
21941;SDS011;11135;54.192;15.670;2023-02-01T09:29:26;11.30;;;2.47;;
21941;SDS011;11135;54.192;15.670;2023-02-01T09:32:31;11.50;;;2.05;;
21941;SDS011;11135;54.192;15.670;2023-02-01T09:35:37;13.63;;;2.33;;
21941;SDS011;11135;54.192;15.670;2023-02-01T09:38:46;13.25;;;2.50;;
21941;SDS011;11135;54.192;15.670;2023-02-01T09:41:59;14.35;;;2.35;;
21941;SDS011;11135;54.192;15.670;2023-02-01T09:45:10;9.48;;;1.77;;
21941;SDS011;11135;54.192;15.670;2023-02-01T09:48:23;9.02;;;2.45;;
21941;SDS011;11135;54.192;15.670;2023-02-01T09:51:33;14.07;;;2.47;;
21941;SDS011;11135;54.192;15.670;2023-02-01T09:54:40;10.98;;;2.53;;
21941;SDS011;11135;54.192;15.670;2023-02-01T09:57:51;8.35;;;1.45;;
21941;SDS011;11135;54.192;15.670;2023-02-01T10:01:00;2.13;;;0.80;;
21941;SDS011;11135;54.192;15.670;2023-02-01T10:04:15;8.30;;;1.67;;
21941;SDS011;11135;54.192;15.670;2023-02-01T10:07:25;8.55;;;2.70;;
21941;SDS011;11135;54.192;15.670;2023-02-01T10:10:34;6.07;;;1.58;;
21941;SDS011;11135;54.192;15.670;2023-02-01T10:13:47;10.07;;;3.38;;
21941;SDS011;11135;54.192;15.670;2023-02-01T10:16:55;8.45;;;1.30;;
21941;SDS011;11135;54.192;15.670;2023-02-01T10:20:07;5.80;;;1.38;;
21941;SDS011;11135;54.192;15.670;2023-02-01T10:23:20;9.90;;;1.42;;
21941;SDS011;11135;54.192;15.670;2023-02-01T10:26:39;4.00;;;1.73;;
21941;SDS011;11135;54.192;15.670;2023-02-01T10:29:51;1.75;;;0.80;;
21941;SDS011;11135;54.192;15.670;2023-02-01T10:33:00;4.72;;;1.13;;
21941;SDS011;11135;54.192;15.670;2023-02-01T10:36:10;6.50;;;1.30;;
21941;SDS011;11135;54.192;15.670;2023-02-01T10:39:24;5.88;;;1.15;;
21941;SDS011;11135;54.192;15.670;2023-02-01T10:42:29;6.47;;;1.40;;
21941;SDS011;11135;54.192;15.670;2023-02-01T10:45:40;4.57;;;1.08;;
21941;SDS011;11135;54.192;15.670;2023-02-01T10:48:45;6.60;;;1.52;;
21941;SDS011;11135;54.192;15.670;2023-02-01T10:51:58;4.05;;;1.00;;
21941;SDS011;11135;54.192;15.670;2023-02-01T10:58:30;6.65;;;1.55;;
21941;SDS011;11135;54.192;15.670;2023-02-01T11:01:41;6.65;;;1.85;;
21941;SDS011;11135;54.192;15.670;2023-02-01T11:04:47;12.93;;;2.85;;
21941;SDS011;11135;54.192;15.670;2023-02-01T11:07:53;5.65;;;1.35;;
21941;SDS011;11135;54.192;15.670;2023-02-01T11:11:02;3.90;;;1.38;;
21941;SDS011;11135;54.192;15.670;2023-02-01T11:14:13;6.88;;;0.95;;
21941;SDS011;11135;54.192;15.670;2023-02-01T11:17:27;5.00;;;1.10;;
21941;SDS011;11135;54.192;15.670;2023-02-01T11:20:34;7.55;;;1.27;;
21941;SDS011;11135;54.192;15.670;2023-02-01T11:23:43;3.97;;;0.98;;
21941;SDS011;11135;54.192;15.670;2023-02-01T11:26:49;1.95;;;0.70;;
21941;SDS011;11135;54.192;15.670;2023-02-01T11:30:02;7.07;;;1.50;;
21941;SDS011;11135;54.192;15.670;2023-02-01T11:33:12;4.95;;;1.88;;
21941;SDS011;11135;54.192;15.670;2023-02-01T11:36:22;6.05;;;1.05;;
21941;SDS011;11135;54.192;15.670;2023-02-01T11:39:29;2.22;;;1.33;;
21941;SDS011;11135;54.192;15.670;2023-02-01T11:42:39;2.10;;;0.90;;
21941;SDS011;11135;54.192;15.670;2023-02-01T11:45:58;2.42;;;0.80;;
21941;SDS011;11135;54.192;15.670;2023-02-01T11:49:19;3.03;;;0.90;;
21941;SDS011;11135;54.192;15.670;2023-02-01T11:52:29;4.80;;;1.67;;
21941;SDS011;11135;54.192;15.670;2023-02-01T11:55:41;3.72;;;0.95;;
21941;SDS011;11135;54.192;15.670;2023-02-01T11:58:54;2.88;;;0.57;;
21941;SDS011;11135;54.192;15.670;2023-02-01T12:02:08;4.30;;;1.10;;
21941;SDS011;11135;54.192;15.670;2023-02-01T12:05:23;4.47;;;1.00;;
21941;SDS011;11135;54.192;15.670;2023-02-01T12:08:38;5.18;;;1.00;;
21941;SDS011;11135;54.192;15.670;2023-02-01T12:11:52;2.35;;;0.70;;
21941;SDS011;11135;54.192;15.670;2023-02-01T12:15:11;5.70;;;1.40;;
21941;SDS011;11135;54.192;15.670;2023-02-01T12:18:30;6.03;;;1.42;;
21941;SDS011;11135;54.192;15.670;2023-02-01T12:21:46;7.03;;;1.25;;
21941;SDS011;11135;54.192;15.670;2023-02-01T12:25:11;3.33;;;0.75;;
21941;SDS011;11135;54.192;15.670;2023-02-01T12:28:33;1.25;;;0.80;;
21941;SDS011;11135;54.192;15.670;2023-02-01T12:31:44;4.25;;;1.10;;
21941;SDS011;11135;54.192;15.670;2023-02-01T12:38:20;1.30;;;0.80;;
21941;SDS011;11135;54.192;15.670;2023-02-01T12:41:36;3.65;;;1.27;;
21941;SDS011;11135;54.192;15.670;2023-02-01T12:44:49;3.85;;;0.88;;
21941;SDS011;11135;54.192;15.670;2023-02-01T12:47:59;3.05;;;1.02;;
21941;SDS011;11135;54.192;15.670;2023-02-01T12:51:07;2.13;;;1.20;;
21941;SDS011;11135;54.192;15.670;2023-02-01T12:54:18;5.03;;;1.15;;
21941;SDS011;11135;54.192;15.670;2023-02-01T12:57:26;3.95;;;0.90;;
21941;SDS011;11135;54.192;15.670;2023-02-01T13:00:34;2.83;;;1.10;;
21941;SDS011;11135;54.192;15.670;2023-02-01T13:03:50;5.25;;;1.15;;
21941;SDS011;11135;54.192;15.670;2023-02-01T13:07:11;4.88;;;1.17;;
21941;SDS011;11135;54.192;15.670;2023-02-01T13:10:27;4.03;;;0.90;;
21941;SDS011;11135;54.192;15.670;2023-02-01T13:13:42;4.70;;;1.48;;
21941;SDS011;11135;54.192;15.670;2023-02-01T13:16:52;4.80;;;1.30;;
21941;SDS011;11135;54.192;15.670;2023-02-01T13:20:03;3.72;;;1.00;;
21941;SDS011;11135;54.192;15.670;2023-02-01T13:23:21;7.72;;;1.65;;
21941;SDS011;11135;54.192;15.670;2023-02-01T13:26:41;6.45;;;1.20;;
21941;SDS011;11135;54.192;15.670;2023-02-01T13:29:50;6.10;;;1.38;;
21941;SDS011;11135;54.192;15.670;2023-02-01T13:33:02;6.93;;;1.52;;
21941;SDS011;11135;54.192;15.670;2023-02-01T13:40:11;7.60;;;1.42;;
21941;SDS011;11135;54.192;15.670;2023-02-01T13:43:28;5.47;;;1.63;;
21941;SDS011;11135;54.192;15.670;2023-02-01T13:46:38;5.13;;;1.20;;
21941;SDS011;11135;54.192;15.670;2023-02-01T13:49:47;10.48;;;2.17;;
21941;SDS011;11135;54.192;15.670;2023-02-01T13:52:54;4.22;;;1.45;;
21941;SDS011;11135;54.192;15.670;2023-02-01T13:56:00;3.28;;;1.10;;
21941;SDS011;11135;54.192;15.670;2023-02-01T14:02:59;3.30;;;1.27;;
21941;SDS011;11135;54.192;15.670;2023-02-01T14:06:15;2.38;;;0.85;;
21941;SDS011;11135;54.192;15.670;2023-02-01T14:09:34;6.50;;;1.25;;
21941;SDS011;11135;54.192;15.670;2023-02-01T14:12:48;3.08;;;0.90;;
21941;SDS011;11135;54.192;15.670;2023-02-01T14:19:21;5.25;;;1.00;;
21941;SDS011;11135;54.192;15.670;2023-02-01T14:22:31;5.25;;;0.88;;
21941;SDS011;11135;54.192;15.670;2023-02-01T14:25:37;3.70;;;1.30;;
21941;SDS011;11135;54.192;15.670;2023-02-01T14:28:50;7.22;;;1.65;;
21941;SDS011;11135;54.192;15.670;2023-02-01T14:32:01;3.55;;;1.23;;
21941;SDS011;11135;54.192;15.670;2023-02-01T14:35:21;2.92;;;1.02;;
21941;SDS011;11135;54.192;15.670;2023-02-01T14:38:28;2.60;;;0.80;;
21941;SDS011;11135;54.192;15.670;2023-02-01T14:41:36;5.50;;;1.45;;
21941;SDS011;11135;54.192;15.670;2023-02-01T14:44:45;4.32;;;1.40;;
21941;SDS011;11135;54.192;15.670;2023-02-01T14:51:30;7.18;;;1.00;;
21941;SDS011;11135;54.192;15.670;2023-02-01T14:54:37;5.63;;;1.02;;
21941;SDS011;11135;54.192;15.670;2023-02-01T14:57:57;3.78;;;1.10;;
21941;SDS011;11135;54.192;15.670;2023-02-01T15:01:05;3.72;;;1.00;;
21941;SDS011;11135;54.192;15.670;2023-02-01T15:04:11;8.40;;;1.15;;
21941;SDS011;11135;54.192;15.670;2023-02-01T15:07:24;5.10;;;1.48;;
21941;SDS011;11135;54.192;15.670;2023-02-01T15:10:30;9.45;;;1.88;;
21941;SDS011;11135;54.192;15.670;2023-02-01T15:13:49;5.60;;;1.75;;
21941;SDS011;11135;54.192;15.670;2023-02-01T15:16:57;6.75;;;1.55;;
21941;SDS011;11135;54.192;15.670;2023-02-01T15:20:12;7.68;;;1.80;;
21941;SDS011;11135;54.192;15.670;2023-02-01T15:23:22;7.32;;;2.30;;
21941;SDS011;11135;54.192;15.670;2023-02-01T15:26:33;7.03;;;1.70;;
21941;SDS011;11135;54.192;15.670;2023-02-01T15:29:39;5.80;;;2.35;;
21941;SDS011;11135;54.192;15.670;2023-02-01T15:32:46;10.02;;;1.42;;
21941;SDS011;11135;54.192;15.670;2023-02-01T15:35:53;6.05;;;1.20;;
21941;SDS011;11135;54.192;15.670;2023-02-01T15:42:40;10.88;;;2.60;;
21941;SDS011;11135;54.192;15.670;2023-02-01T15:46:01;5.15;;;1.55;;
21941;SDS011;11135;54.192;15.670;2023-02-01T15:49:15;9.68;;;1.50;;
21941;SDS011;11135;54.192;15.670;2023-02-01T15:52:24;3.63;;;1.00;;
21941;SDS011;11135;54.192;15.670;2023-02-01T15:55:33;4.15;;;1.23;;
21941;SDS011;11135;54.192;15.670;2023-02-01T15:58:53;3.88;;;1.08;;
21941;SDS011;11135;54.192;15.670;2023-02-01T16:02:01;4.35;;;1.98;;
21941;SDS011;11135;54.192;15.670;2023-02-01T16:05:25;7.32;;;1.70;;
21941;SDS011;11135;54.192;15.670;2023-02-01T16:08:34;6.50;;;1.23;;
21941;SDS011;11135;54.192;15.670;2023-02-01T16:11:40;7.35;;;2.10;;
21941;SDS011;11135;54.192;15.670;2023-02-01T16:14:50;8.82;;;1.60;;
21941;SDS011;11135;54.192;15.670;2023-02-01T16:17:56;5.50;;;1.50;;
21941;SDS011;11135;54.192;15.670;2023-02-01T16:21:01;5.55;;;1.55;;
21941;SDS011;11135;54.192;15.670;2023-02-01T16:24:12;6.13;;;1.50;;
21941;SDS011;11135;54.192;15.670;2023-02-01T16:27:17;5.60;;;1.63;;
21941;SDS011;11135;54.192;15.670;2023-02-01T16:30:31;4.82;;;1.42;;
21941;SDS011;11135;54.192;15.670;2023-02-01T16:33:37;7.50;;;1.98;;
21941;SDS011;11135;54.192;15.670;2023-02-01T16:36:46;11.85;;;2.20;;
21941;SDS011;11135;54.192;15.670;2023-02-01T16:39:59;8.73;;;1.70;;
21941;SDS011;11135;54.192;15.670;2023-02-01T16:43:07;6.32;;;2.47;;
21941;SDS011;11135;54.192;15.670;2023-02-01T16:49:56;5.45;;;1.30;;
21941;SDS011;11135;54.192;15.670;2023-02-01T16:53:22;4.45;;;1.45;;
21941;SDS011;11135;54.192;15.670;2023-02-01T16:56:37;4.13;;;1.75;;
21941;SDS011;11135;54.192;15.670;2023-02-01T16:59:44;2.72;;;1.15;;
21941;SDS011;11135;54.192;15.670;2023-02-01T17:02:54;3.35;;;1.15;;
21941;SDS011;11135;54.192;15.670;2023-02-01T17:06:03;3.10;;;1.40;;
21941;SDS011;11135;54.192;15.670;2023-02-01T17:09:11;3.95;;;1.20;;
21941;SDS011;11135;54.192;15.670;2023-02-01T17:12:18;4.00;;;1.40;;
21941;SDS011;11135;54.192;15.670;2023-02-01T17:15:29;4.32;;;1.20;;
21941;SDS011;11135;54.192;15.670;2023-02-01T17:18:40;7.28;;;1.50;;
21941;SDS011;11135;54.192;15.670;2023-02-01T17:22:03;3.83;;;1.25;;
21941;SDS011;11135;54.192;15.670;2023-02-01T17:25:31;7.85;;;1.55;;
21941;SDS011;11135;54.192;15.670;2023-02-01T17:28:41;4.13;;;1.40;;
21941;SDS011;11135;54.192;15.670;2023-02-01T17:31:51;6.15;;;1.80;;
21941;SDS011;11135;54.192;15.670;2023-02-01T17:34:59;5.63;;;1.33;;
21941;SDS011;11135;54.192;15.670;2023-02-01T17:38:08;3.17;;;0.93;;
21941;SDS011;11135;54.192;15.670;2023-02-01T17:41:15;2.45;;;1.20;;
21941;SDS011;11135;54.192;15.670;2023-02-01T17:44:21;4.30;;;1.00;;
21941;SDS011;11135;54.192;15.670;2023-02-01T17:47:26;2.05;;;1.05;;
21941;SDS011;11135;54.192;15.670;2023-02-01T17:50:34;4.68;;;1.00;;
21941;SDS011;11135;54.192;15.670;2023-02-01T17:53:44;6.40;;;1.15;;
21941;SDS011;11135;54.192;15.670;2023-02-01T17:56:51;6.57;;;2.42;;
21941;SDS011;11135;54.192;15.670;2023-02-01T17:59:57;5.88;;;1.60;;
21941;SDS011;11135;54.192;15.670;2023-02-01T18:03:02;3.17;;;0.95;;
21941;SDS011;11135;54.192;15.670;2023-02-01T18:06:10;6.35;;;0.90;;
21941;SDS011;11135;54.192;15.670;2023-02-01T18:09:21;6.40;;;1.75;;
21941;SDS011;11135;54.192;15.670;2023-02-01T18:12:27;5.00;;;1.58;;
21941;SDS011;11135;54.192;15.670;2023-02-01T18:15:32;9.82;;;1.35;;
21941;SDS011;11135;54.192;15.670;2023-02-01T18:18:38;3.85;;;0.82;;
21941;SDS011;11135;54.192;15.670;2023-02-01T18:21:43;3.80;;;1.05;;
21941;SDS011;11135;54.192;15.670;2023-02-01T18:24:53;3.60;;;0.90;;
21941;SDS011;11135;54.192;15.670;2023-02-01T18:27:59;4.93;;;0.90;;
21941;SDS011;11135;54.192;15.670;2023-02-01T18:31:05;3.42;;;1.10;;
21941;SDS011;11135;54.192;15.670;2023-02-01T18:34:14;4.97;;;1.30;;
21941;SDS011;11135;54.192;15.670;2023-02-01T18:37:23;4.95;;;1.67;;
21941;SDS011;11135;54.192;15.670;2023-02-01T18:40:34;10.75;;;1.55;;
21941;SDS011;11135;54.192;15.670;2023-02-01T18:43:40;3.75;;;1.20;;
21941;SDS011;11135;54.192;15.670;2023-02-01T18:46:46;6.22;;;1.65;;
21941;SDS011;11135;54.192;15.670;2023-02-01T18:49:51;6.93;;;1.60;;
21941;SDS011;11135;54.192;15.670;2023-02-01T18:52:57;5.93;;;1.77;;
21941;SDS011;11135;54.192;15.670;2023-02-01T18:56:06;10.88;;;2.08;;
21941;SDS011;11135;54.192;15.670;2023-02-01T18:59:11;9.13;;;1.92;;
21941;SDS011;11135;54.192;15.670;2023-02-01T19:02:18;8.38;;;1.90;;
21941;SDS011;11135;54.192;15.670;2023-02-01T19:05:26;8.43;;;1.73;;
21941;SDS011;11135;54.192;15.670;2023-02-01T19:08:31;5.93;;;1.40;;